Terminal Aerodrome Forecast
Issued by NWS

Home | Current Version | Previous Version | Text Only | Print | Product List | Glossary On
Versions: 1 2 3 4 5 6 7 8 9 10 11 12
000
FTUS42 TJSJ 030522
TAFNCM
TAF
TNCM 030522Z 0306/0406 13010KT P6SM FEW018
     FM031300 11011KT P6SM SCT020
     FM032300 09008KT P6SM FEW018 SCT040=

USA.gov is the U.S. government's official web portal to all federal, state and local government web resources and services.